sensor_id;sensor_type;location;lat;lon;timestamp;pressure;altitude;pressure_sealevel;temperature;humidity
75923;BME280;64602;47.542;19.090;2023-03-14T06:28:01;99254.41;;;9.50;50.49
75923;BME280;64602;47.542;19.090;2023-03-14T06:33:03;99245.97;;;9.67;49.06
75923;BME280;64602;47.542;19.090;2023-03-14T06:38:05;99241.63;;;9.71;48.95
75923;BME280;64602;47.542;19.090;2023-03-14T06:43:07;99246.75;;;9.83;48.50
75923;BME280;64602;47.542;19.090;2023-03-14T06:48:09;99259.97;;;9.95;48.25
75923;BME280;64602;47.542;19.090;2023-03-14T06:53:17;99250.50;;;9.92;48.22
75923;BME280;64602;47.542;19.090;2023-03-14T06:58:20;99247.22;;;10.11;48.20
75923;BME280;64602;47.542;19.090;2023-03-14T07:03:22;99237.75;;;10.03;48.08
75923;BME280;64602;47.542;19.090;2023-03-14T07:08:24;99257.19;;;10.31;47.81
75923;BME280;64602;47.542;19.090;2023-03-14T07:13:26;99246.59;;;10.29;47.81
75923;BME280;64602;47.542;19.090;2023-03-14T07:18:28;99237.25;;;10.56;47.55
75923;BME280;64602;47.542;19.090;2023-03-14T07:23:30;99244.25;;;10.67;47.46
75923;BME280;64602;47.542;19.090;2023-03-14T07:28:32;99233.69;;;10.60;47.45
75923;BME280;64602;47.542;19.090;2023-03-14T07:33:34;99239.59;;;10.78;47.22
75923;BME280;64602;47.542;19.090;2023-03-14T07:38:37;99248.19;;;10.90;46.96
75923;BME280;64602;47.542;19.090;2023-03-14T07:43:39;99224.91;;;11.13;47.03
75923;BME280;64602;47.542;19.090;2023-03-14T07:48:41;99231.66;;;11.50;46.42
75923;BME280;64602;47.542;19.090;2023-03-14T07:53:43;99221.97;;;11.68;46.00
75923;BME280;64602;47.542;19.090;2023-03-14T07:58:46;99200.66;;;12.04;45.56
75923;BME280;64602;47.542;19.090;2023-03-14T08:03:48;99200.56;;;12.33;44.84
75923;BME280;64602;47.542;19.090;2023-03-14T08:08:50;99207.28;;;12.60;44.43
75923;BME280;64602;47.542;19.090;2023-03-14T08:13:52;99192.16;;;12.87;44.06
75923;BME280;64602;47.542;19.090;2023-03-14T08:18:54;99178.16;;;12.93;43.78
75923;BME280;64602;47.542;19.090;2023-03-14T08:23:57;99177.31;;;13.12;43.86
75923;BME280;64602;47.542;19.090;2023-03-14T08:29:00;99170.59;;;13.23;43.75
75923;BME280;64602;47.542;19.090;2023-03-14T08:34:02;99179.59;;;13.37;43.61
75923;BME280;64602;47.542;19.090;2023-03-14T08:39:04;99169.16;;;13.58;43.37
75923;BME280;64602;47.542;19.090;2023-03-14T08:44:09;99171.06;;;13.58;43.42
75923;BME280;64602;47.542;19.090;2023-03-14T08:49:13;99157.19;;;14.09;42.73
75923;BME280;64602;47.542;19.090;2023-03-14T08:54:16;99166.50;;;14.59;41.73
75923;BME280;64602;47.542;19.090;2023-03-14T08:59:19;99155.66;;;14.90;41.38
75923;BME280;64602;47.542;19.090;2023-03-14T09:04:21;99133.19;;;15.24;40.87
75923;BME280;64602;47.542;19.090;2023-03-14T09:09:24;99127.72;;;15.15;39.97
75923;BME280;64602;47.542;19.090;2023-03-14T09:14:26;99121.75;;;15.45;39.46
75923;BME280;64602;47.542;19.090;2023-03-14T09:19:29;99122.56;;;15.85;38.72
75923;BME280;64602;47.542;19.090;2023-03-14T09:24:31;99132.94;;;16.32;38.12
75923;BME280;64602;47.542;19.090;2023-03-14T09:29:33;99133.41;;;16.25;37.94
75923;BME280;64602;47.542;19.090;2023-03-14T09:34:36;99110.22;;;16.31;37.47
75923;BME280;64602;47.542;19.090;2023-03-14T09:39:38;99095.84;;;16.78;37.28
75923;BME280;64602;47.542;19.090;2023-03-14T09:44:50;99098.22;;;17.05;36.59
75923;BME280;64602;47.542;19.090;2023-03-14T09:49:54;99094.06;;;17.85;35.31
75923;BME280;64602;47.542;19.090;2023-03-14T09:54:59;99076.03;;;17.66;35.34
75923;BME280;64602;47.542;19.090;2023-03-14T10:00:29;99080.94;;;18.32;34.73
75923;BME280;64602;47.542;19.090;2023-03-14T10:05:29;99068.34;;;18.86;34.25
75923;BME280;64602;47.542;19.090;2023-03-14T10:10:31;99046.59;;;18.93;33.73
75923;BME280;64602;47.542;19.090;2023-03-14T10:15:34;99028.56;;;19.29;33.79
75923;BME280;64602;47.542;19.090;2023-03-14T10:20:45;99015.72;;;19.45;33.28
75923;BME280;64602;47.542;19.090;2023-03-14T10:26:12;99020.63;;;19.89;32.86
75923;BME280;64602;47.542;19.090;2023-03-14T10:31:15;99001.72;;;20.72;31.54
75923;BME280;64602;47.542;19.090;2023-03-14T10:36:21;98982.50;;;21.74;29.87
75923;BME280;64602;47.542;19.090;2023-03-14T10:41:26;98983.69;;;22.12;29.41
75923;BME280;64602;47.542;19.090;2023-03-14T10:46:31;98965.91;;;21.39;29.17
75923;BME280;64602;47.542;19.090;2023-03-14T10:51:34;98977.94;;;21.30;29.13
75923;BME280;64602;47.542;19.090;2023-03-14T10:56:37;98978.88;;;21.03;29.57
75923;BME280;64602;47.542;19.090;2023-03-14T11:01:51;98961.34;;;22.01;28.56
75923;BME280;64602;47.542;19.090;2023-03-14T11:17:44;98933.31;;;23.34;26.50
75923;BME280;64602;47.542;19.090;2023-03-14T11:23:01;98924.91;;;22.77;27.21
75923;BME280;64602;47.542;19.090;2023-03-14T11:28:40;98905.84;;;22.49;27.09
75923;BME280;64602;47.542;19.090;2023-03-14T11:39:13;98894.47;;;24.62;24.84
75923;BME280;64602;47.542;19.090;2023-03-14T11:44:29;98857.81;;;23.67;25.94
75923;BME280;64602;47.542;19.090;2023-03-14T11:49:39;98878.16;;;23.52;26.40
75923;BME280;64602;47.542;19.090;2023-03-14T11:54:45;98839.50;;;22.75;27.88
75923;BME280;64602;47.542;19.090;2023-03-14T12:00:20;98852.44;;;23.51;26.41
75923;BME280;64602;47.542;19.090;2023-03-14T12:05:48;98854.78;;;22.66;27.49
75923;BME280;64602;47.542;19.090;2023-03-14T12:16:35;98869.78;;;21.60;28.75
75923;BME280;64602;47.542;19.090;2023-03-14T12:21:51;98840.44;;;21.52;28.78
75923;BME280;64602;47.542;19.090;2023-03-14T12:27:00;98821.44;;;21.31;29.09
75923;BME280;64602;47.542;19.090;2023-03-14T12:32:06;98822.56;;;20.43;29.42
75923;BME280;64602;47.542;19.090;2023-03-14T12:37:12;98801.72;;;20.11;30.08
75923;BME280;64602;47.542;19.090;2023-03-14T12:42:40;98797.53;;;20.33;30.29
75923;BME280;64602;47.542;19.090;2023-03-14T12:47:51;98791.56;;;20.62;29.98
75923;BME280;64602;47.542;19.090;2023-03-14T12:58:51;98775.91;;;19.71;31.64
75923;BME280;64602;47.542;19.090;2023-03-14T13:03:58;98770.53;;;19.62;32.01
75923;BME280;64602;47.542;19.090;2023-03-14T13:14:31;98752.19;;;19.10;34.21
75923;BME280;64602;47.542;19.090;2023-03-14T13:19:33;98738.38;;;18.94;33.84
75923;BME280;64602;47.542;19.090;2023-03-14T13:24:36;98745.69;;;18.90;33.85
75923;BME280;64602;47.542;19.090;2023-03-14T13:29:38;98765.09;;;18.82;33.65
75923;BME280;64602;47.542;19.090;2023-03-14T13:34:41;98769.53;;;18.74;33.82
75923;BME280;64602;47.542;19.090;2023-03-14T13:39:43;98761.91;;;18.55;33.92
75923;BME280;64602;47.542;19.090;2023-03-14T13:44:52;98776.75;;;18.54;34.12
75923;BME280;64602;47.542;19.090;2023-03-14T13:49:54;98773.44;;;18.48;35.45
75923;BME280;64602;47.542;19.090;2023-03-14T13:54:59;98765.69;;;18.38;35.48
75923;BME280;64602;47.542;19.090;2023-03-14T14:00:07;98777.94;;;18.41;35.29
75923;BME280;64602;47.542;19.090;2023-03-14T14:05:18;98777.47;;;18.39;35.21
75923;BME280;64602;47.542;19.090;2023-03-14T14:10:21;98769.00;;;18.44;35.03
75923;BME280;64602;47.542;19.090;2023-03-14T14:15:27;98774.63;;;18.47;34.96
75923;BME280;64602;47.542;19.090;2023-03-14T14:20:37;98758.47;;;18.46;34.89
75923;BME280;64602;47.542;19.090;2023-03-14T14:25:42;98751.94;;;18.50;34.64
75923;BME280;64602;47.542;19.090;2023-03-14T14:30:44;98753.28;;;18.56;34.17
75923;BME280;64602;47.542;19.090;2023-03-14T14:35:56;98747.91;;;18.60;34.25
75923;BME280;64602;47.542;19.090;2023-03-14T14:41:01;98752.50;;;18.56;34.10
75923;BME280;64602;47.542;19.090;2023-03-14T14:46:06;98749.28;;;18.54;33.79
75923;BME280;64602;47.542;19.090;2023-03-14T14:51:10;98755.81;;;18.62;33.99
75923;BME280;64602;47.542;19.090;2023-03-14T14:56:21;98756.41;;;18.55;34.24
75923;BME280;64602;47.542;19.090;2023-03-14T15:01:35;98744.72;;;18.46;34.61
75923;BME280;64602;47.542;19.090;2023-03-14T15:06:39;98754.12;;;18.45;34.89
75923;BME280;64602;47.542;19.090;2023-03-14T15:11:43;98748.75;;;18.36;35.32
75923;BME280;64602;47.542;19.090;2023-03-14T15:16:46;98774.47;;;18.19;36.23
75923;BME280;64602;47.542;19.090;2023-03-14T15:21:48;98763.03;;;18.05;36.79
75923;BME280;64602;47.542;19.090;2023-03-14T15:26:50;98777.06;;;17.91;36.92
75923;BME280;64602;47.542;19.090;2023-03-14T15:31:53;98781.72;;;17.78;37.01
75923;BME280;64602;47.542;19.090;2023-03-14T15:36:55;98795.97;;;17.71;36.59
75923;BME280;64602;47.542;19.090;2023-03-14T15:41:57;98788.75;;;17.67;36.58
75923;BME280;64602;47.542;19.090;2023-03-14T15:46:59;98791.25;;;17.60;36.63
75923;BME280;64602;47.542;19.090;2023-03-14T15:52:01;98793.16;;;17.47;36.87
75923;BME280;64602;47.542;19.090;2023-03-14T15:57:04;98831.94;;;17.58;40.81
75923;BME280;64602;47.542;19.090;2023-03-14T16:02:09;98864.84;;;16.95;47.24
75923;BME280;64602;47.542;19.090;2023-03-14T16:07:12;98868.78;;;16.38;49.76
75923;BME280;64602;47.542;19.090;2023-03-14T16:12:14;98883.53;;;16.07;52.25
75923;BME280;64602;47.542;19.090;2023-03-14T16:17:16;98873.91;;;15.57;54.80
75923;BME280;64602;47.542;19.090;2023-03-14T16:22:18;98880.34;;;15.27;58.35
75923;BME280;64602;47.542;19.090;2023-03-14T16:27:20;98878.19;;;14.98;60.53
75923;BME280;64602;47.542;19.090;2023-03-14T16:32:22;98860.44;;;14.69;61.59
75923;BME280;64602;47.542;19.090;2023-03-14T16:37:25;98866.63;;;14.52;63.19
75923;BME280;64602;47.542;19.090;2023-03-14T16:42:28;98865.06;;;14.28;64.27
75923;BME280;64602;47.542;19.090;2023-03-14T16:47:30;98876.97;;;14.01;65.58
75923;BME280;64602;47.542;19.090;2023-03-14T16:52:32;98883.25;;;13.79;66.69
75923;BME280;64602;47.542;19.090;2023-03-14T16:57:34;98902.75;;;13.73;67.71
75923;BME280;64602;47.542;19.090;2023-03-14T17:02:37;98910.19;;;13.58;68.51
75923;BME280;64602;47.542;19.090;2023-03-14T17:07:39;98917.34;;;13.54;68.18
75923;BME280;64602;47.542;19.090;2023-03-14T17:12:43;98928.31;;;13.40;68.97
75923;BME280;64602;47.542;19.090;2023-03-14T17:17:45;98922.16;;;13.35;69.65
75923;BME280;64602;47.542;19.090;2023-03-14T17:22:47;98952.81;;;13.26;69.86
75923;BME280;64602;47.542;19.090;2023-03-14T17:27:49;98957.19;;;13.28;70.10
75923;BME280;64602;47.542;19.090;2023-03-14T17:32:51;98946.97;;;13.05;70.80
75923;BME280;64602;47.542;19.090;2023-03-14T17:37:54;98961.62;;;13.10;71.72
75923;BME280;64602;47.542;19.090;2023-03-14T17:42:56;98978.69;;;13.01;70.72
75923;BME280;64602;47.542;19.090;2023-03-14T17:47:58;98971.69;;;12.95;70.39
75923;BME280;64602;47.542;19.090;2023-03-14T17:53:00;98970.91;;;12.95;70.69
75923;BME280;64602;47.542;19.090;2023-03-14T17:58:02;98954.88;;;12.79;70.75
75923;BME280;64602;47.542;19.090;2023-03-14T18:03:04;98978.06;;;12.77;70.59
75923;BME280;64602;47.542;19.090;2023-03-14T18:08:11;98963.91;;;12.61;70.60
75923;BME280;64602;47.542;19.090;2023-03-14T18:13:14;98968.16;;;12.53;70.48
75923;BME280;64602;47.542;19.090;2023-03-14T18:18:16;98966.94;;;12.59;70.58
75923;BME280;64602;47.542;19.090;2023-03-14T18:23:21;98955.84;;;12.56;69.92
75923;BME280;64602;47.542;19.090;2023-03-14T18:28:24;98966.44;;;12.57;69.55
75923;BME280;64602;47.542;19.090;2023-03-14T18:33:26;98970.16;;;12.61;69.64
75923;BME280;64602;47.542;19.090;2023-03-14T18:38:28;98967.44;;;12.61;69.41
75923;BME280;64602;47.542;19.090;2023-03-14T18:43:30;98983.09;;;12.70;69.78
75923;BME280;64602;47.542;19.090;2023-03-14T18:48:35;98959.38;;;12.56;69.46
75923;BME280;64602;47.542;19.090;2023-03-14T18:53:43;98965.31;;;12.58;70.10
75923;BME280;64602;47.542;19.090;2023-03-14T18:58:45;98959.38;;;12.56;69.88
75923;BME280;64602;47.542;19.090;2023-03-14T19:03:48;98943.44;;;12.50;69.92
75923;BME280;64602;47.542;19.090;2023-03-14T19:08:50;98939.09;;;12.49;69.57
75923;BME280;64602;47.542;19.090;2023-03-14T19:13:53;98931.03;;;12.44;69.04
75923;BME280;64602;47.542;19.090;2023-03-14T19:18:58;98943.22;;;12.46;68.21
75923;BME280;64602;47.542;19.090;2023-03-14T19:24:01;98961.56;;;12.54;69.12
75923;BME280;64602;47.542;19.090;2023-03-14T19:29:04;98952.91;;;12.38;70.59
75923;BME280;64602;47.542;19.090;2023-03-14T19:34:07;98953.00;;;12.33;71.61
75923;BME280;64602;47.542;19.090;2023-03-14T19:39:09;98951.34;;;12.32;72.47
75923;BME280;64602;47.542;19.090;2023-03-14T19:44:11;98948.97;;;12.31;73.07
75923;BME280;64602;47.542;19.090;2023-03-14T19:49:14;98934.94;;;12.24;73.07
75923;BME280;64602;47.542;19.090;2023-03-14T19:54:16;98948.91;;;12.17;74.97
75923;BME280;64602;47.542;19.090;2023-03-14T19:59:18;98953.97;;;12.24;76.03
75923;BME280;64602;47.542;19.090;2023-03-14T20:04:20;98934.09;;;12.09;76.66
75923;BME280;64602;47.542;19.090;2023-03-14T20:09:22;98936.25;;;11.93;77.77
75923;BME280;64602;47.542;19.090;2023-03-14T20:14:24;98951.38;;;12.00;78.51
75923;BME280;64602;47.542;19.090;2023-03-14T20:19:27;98959.31;;;11.96;77.47
75923;BME280;64602;47.542;19.090;2023-03-14T20:24:29;98967.19;;;11.97;76.46
75923;BME280;64602;47.542;19.090;2023-03-14T20:29:33;98958.00;;;11.93;76.20
75923;BME280;64602;47.542;19.090;2023-03-14T20:34:35;98976.22;;;11.93;78.68
75923;BME280;64602;47.542;19.090;2023-03-14T20:39:37;98976.00;;;11.89;79.51
75923;BME280;64602;47.542;19.090;2023-03-14T20:44:39;98964.06;;;11.85;76.02
75923;BME280;64602;47.542;19.090;2023-03-14T20:49:42;98977.53;;;11.95;72.53
75923;BME280;64602;47.542;19.090;2023-03-14T20:54:44;98996.13;;;12.07;72.86
75923;BME280;64602;47.542;19.090;2023-03-14T20:59:47;98994.66;;;11.96;74.27
75923;BME280;64602;47.542;19.090;2023-03-14T21:04:49;99012.06;;;11.95;75.68
75923;BME280;64602;47.542;19.090;2023-03-14T21:09:51;99013.09;;;11.80;76.80
75923;BME280;64602;47.542;19.090;2023-03-14T21:14:53;99018.34;;;11.71;77.41
75923;BME280;64602;47.542;19.090;2023-03-14T21:19:55;99013.28;;;11.65;77.83
75923;BME280;64602;47.542;19.090;2023-03-14T21:25:01;99019.91;;;11.59;78.11
75923;BME280;64602;47.542;19.090;2023-03-14T21:30:04;99024.34;;;11.49;78.66
75923;BME280;64602;47.542;19.090;2023-03-14T21:35:06;99025.81;;;11.42;79.16
75923;BME280;64602;47.542;19.090;2023-03-14T21:40:09;99035.06;;;11.41;79.81
75923;BME280;64602;47.542;19.090;2023-03-14T21:45:12;99028.94;;;11.30;80.30
